Saturday, April 30, 2016, 3:05 AM EDT

KDYL, Doylestown Airport

Location: Doylestown, PA, United States Lat: 40.333
Local Time: 3:05 AM EDT ( 7:05 GMT) Lon: -75.117
Time Zone: US/Eastern Elev: 393 ft

Show me the last for .
Show Decoded

2016-04-30 02:54 METAR KDYL 300654Z AUTO 01003KT 10SM BKN018 OVC025 07/03 A3014 RMK AO2 SLP209
                 T00670033 =
2016-04-30 01:54 METAR KDYL 300554Z AUTO 00000KT 10SM OVC018 06/03 A3014 RMK AO2 SLP210 60000
                 T00610033 10078 20061 50002 =
2016-04-30 00:54 METAR KDYL 300454Z AUTO 03003KT 10SM OVC017 07/03 A3015 RMK AO2 SLP214 T00670028
                 401060056 =
2016-04-29 23:54 METAR KDYL 300354Z AUTO 01003KT 10SM OVC020 07/03 A3015 RMK AO2 SLP212 T00670033
                 =
2016-04-29 22:54 METAR KDYL 300254Z AUTO 04008KT 10SM BKN023 OVC031 07/03 A3013 RMK AO2 RAB33E40
                 SLP207 P0000 60000 T00670028 50019 =
2016-04-29 21:54 METAR KDYL 300154Z AUTO 35003KT 10SM OVC026 07/03 A3013 RMK AO2 SLP208 T00720028
                 =
2016-04-29 20:54 METAR KDYL 300054Z AUTO 00000KT 10SM OVC028 07/03 A3010 RMK AO2 SLP197 T00720028
                 =
2016-04-29 19:54 METAR KDYL 292354Z AUTO 00000KT 10SM OVC021 08/04 A3008 RMK AO2 SLP188 60002
                 T00780044 10100 20078 53005 =
2016-04-29 18:54 METAR KDYL 292254Z AUTO VRB03KT 10SM OVC029 08/04 A3007 RMK AO2 SLP186 T00780044
                 =
2016-04-29 17:54 METAR KDYL 292154Z AUTO 00000KT 10SM OVC032 08/06 A3006 RMK AO2 SLP184 T00830061
                 =
2016-04-29 16:54 METAR KDYL 292054Z AUTO 00000KT 10SM OVC033 08/06 A3007 RMK AO2 RAE30 SLP185
                 P0001 60002 T00780056 53002 =
2016-04-29 15:54 METAR KDYL 291954Z AUTO 00000KT 9SM -RA OVC030 08/06 A3006 RMK AO2 RAE12B36
                 SLP182 P0001 T00830056 =
2016-04-29 15:47 METAR KDYL 291947Z AUTO VRB03KT 9SM -RA OVC030 08/04 A3006 RMK AO2 RAE12B36
                 P0001 T00830044 =
2016-04-29 15:03 METAR KDYL 291903Z AUTO 00000KT 10SM -RA OVC029 09/03 A3007 RMK AO2 P0000
                 T00940028 =
2016-04-29 14:54 METAR KDYL 291854Z AUTO 00000KT 10SM -RA OVC030 09/02 A3006 RMK AO2 RAB54 SLP184
                 P0000 T00940022 =
2016-04-29 13:54 METAR KDYL 291754Z AUTO VRB03KT 10SM OVC032 10/02 A3006 RMK AO2 SLP182 T01000017
                 10106 20061 58009 =
2016-04-29 12:54 METAR KDYL 291654Z AUTO VRB04KT 10SM OVC039 10/01 A3007 RMK AO2 SLP186 T01000006
                 =
2016-04-29 11:54 METAR KDYL 291554Z AUTO VRB04KT 10SM OVC039 10/03 A3009 RMK AO2 SLP192 T01000033
                 =
2016-04-29 10:54 METAR KDYL 291454Z AUTO VRB03KT 10SM OVC038 09/04 A3009 RMK AO2 SLP191 T00940039
                 51007 =
2016-04-29 09:54 METAR KDYL 291354Z AUTO VRB04KT 10SM OVC035 08/04 A3008 RMK AO2 SLP189 T00830044
                 =
2016-04-29 08:54 METAR KDYL 291254Z AUTO VRB03KT 10SM OVC034 06/05 A3008 RMK AO2 SLP190 T00610050
                 =
2016-04-29 07:54 METAR KDYL 291154Z AUTO 00000KT 10SM OVC036 06/06 A3007 RMK AO2 SLP185 70037
                 T00610056 10067 20056 50011 =
2016-04-29 06:54 METAR KDYL 291054Z AUTO 00000KT 10SM OVC038 06/05 A3007 RMK AO2 SLP186 T00610050
                 =
2016-04-29 05:54 METAR KDYL 290954Z AUTO 00000KT 10SM OVC040 06/05 A3005 RMK AO2 SLP179 T00610050
                 =
2016-04-29 04:54 METAR KDYL 290854Z AUTO 00000KT 10SM OVC038 06/05 A3003 RMK AO2 SLP174 T00560050
                 55002 =
2016-04-29 03:54 METAR KDYL 290754Z AUTO 00000KT 10SM OVC036 06/06 A3003 RMK AO2 SLP172 T00560056
                 =

Support USWX by starting your Amazon purchase here.